sensor_id;sensor_type;location;lat;lon;timestamp;P1;durP1;ratioP1;P2;durP2;ratioP2
76117;SDS011;64851;50.232;20.364;2023-12-29T00:02:02;19.60;;;9.10;;
76117;SDS011;64851;50.232;20.364;2023-12-29T00:04:57;20.70;;;9.10;;
76117;SDS011;64851;50.232;20.364;2023-12-29T00:07:33;19.30;;;9.10;;
76117;SDS011;64851;50.232;20.364;2023-12-29T00:10:21;18.80;;;10.30;;
76117;SDS011;64851;50.232;20.364;2023-12-29T00:13:02;25.00;;;11.90;;
76117;SDS011;64851;50.232;20.364;2023-12-29T00:15:53;28.30;;;13.10;;
76117;SDS011;64851;50.232;20.364;2023-12-29T00:18:31;25.50;;;11.90;;
76117;SDS011;64851;50.232;20.364;2023-12-29T00:21:22;34.10;;;14.90;;
76117;SDS011;64851;50.232;20.364;2023-12-29T00:23:57;28.70;;;15.00;;
76117;SDS011;64851;50.232;20.364;2023-12-29T00:26:45;32.10;;;14.50;;
76117;SDS011;64851;50.232;20.364;2023-12-29T00:29:22;26.20;;;13.50;;
76117;SDS011;64851;50.232;20.364;2023-12-29T00:32:15;28.60;;;15.20;;
76117;SDS011;64851;50.232;20.364;2023-12-29T00:34:56;38.50;;;18.80;;
76117;SDS011;64851;50.232;20.364;2023-12-29T00:37:44;33.20;;;15.50;;
76117;SDS011;64851;50.232;20.364;2023-12-29T00:40:20;31.90;;;16.30;;
76117;SDS011;64851;50.232;20.364;2023-12-29T00:43:09;32.30;;;15.10;;
76117;SDS011;64851;50.232;20.364;2023-12-29T00:45:45;34.80;;;15.90;;
76117;SDS011;64851;50.232;20.364;2023-12-29T00:48:40;38.00;;;18.70;;
76117;SDS011;64851;50.232;20.364;2023-12-29T00:51:21;33.00;;;17.40;;
76117;SDS011;64851;50.232;20.364;2023-12-29T00:54:10;33.60;;;16.60;;
76117;SDS011;64851;50.232;20.364;2023-12-29T00:56:51;35.00;;;17.20;;
76117;SDS011;64851;50.232;20.364;2023-12-29T00:59:32;37.20;;;17.10;;
76117;SDS011;64851;50.232;20.364;2023-12-29T01:02:13;32.70;;;15.70;;
76117;SDS011;64851;50.232;20.364;2023-12-29T01:04:56;35.60;;;17.10;;
76117;SDS011;64851;50.232;20.364;2023-12-29T01:07:37;30.90;;;15.60;;
76117;SDS011;64851;50.232;20.364;2023-12-29T01:10:19;25.80;;;12.50;;
76117;SDS011;64851;50.232;20.364;2023-12-29T01:13:01;21.00;;;11.20;;
76117;SDS011;64851;50.232;20.364;2023-12-29T01:15:51;31.80;;;13.60;;
76117;SDS011;64851;50.232;20.364;2023-12-29T01:18:26;25.20;;;12.20;;
76117;SDS011;64851;50.232;20.364;2023-12-29T01:21:16;24.30;;;13.20;;
76117;SDS011;64851;50.232;20.364;2023-12-29T01:23:51;26.00;;;12.70;;
76117;SDS011;64851;50.232;20.364;2023-12-29T01:26:39;21.80;;;12.30;;
76117;SDS011;64851;50.232;20.364;2023-12-29T01:29:13;22.90;;;11.70;;
76117;SDS011;64851;50.232;20.364;2023-12-29T01:32:01;19.40;;;10.80;;
76117;SDS011;64851;50.232;20.364;2023-12-29T01:34:45;18.30;;;9.30;;
76117;SDS011;64851;50.232;20.364;2023-12-29T01:37:28;17.70;;;9.20;;
76117;SDS011;64851;50.232;20.364;2023-12-29T01:40:18;17.10;;;8.50;;
76117;SDS011;64851;50.232;20.364;2023-12-29T01:43:15;19.00;;;8.80;;
76117;SDS011;64851;50.232;20.364;2023-12-29T01:45:52;13.90;;;7.40;;
76117;SDS011;64851;50.232;20.364;2023-12-29T01:48:48;13.80;;;7.00;;
76117;SDS011;64851;50.232;20.364;2023-12-29T01:51:43;14.40;;;6.90;;
76117;SDS011;64851;50.232;20.364;2023-12-29T01:54:18;12.50;;;6.70;;
76117;SDS011;64851;50.232;20.364;2023-12-29T01:57:16;12.90;;;6.00;;
76117;SDS011;64851;50.232;20.364;2023-12-29T02:00:13;13.50;;;6.10;;
76117;SDS011;64851;50.232;20.364;2023-12-29T02:02:49;12.10;;;5.10;;
76117;SDS011;64851;50.232;20.364;2023-12-29T02:05:37;10.00;;;5.20;;
76117;SDS011;64851;50.232;20.364;2023-12-29T02:08:13;14.20;;;5.70;;
76117;SDS011;64851;50.232;20.364;2023-12-29T02:11:01;12.40;;;5.80;;
76117;SDS011;64851;50.232;20.364;2023-12-29T02:13:37;9.30;;;4.80;;
76117;SDS011;64851;50.232;20.364;2023-12-29T02:16:38;11.30;;;5.00;;
76117;SDS011;64851;50.232;20.364;2023-12-29T02:19:46;9.90;;;4.90;;
76117;SDS011;64851;50.232;20.364;2023-12-29T02:22:41;10.70;;;5.40;;
76117;SDS011;64851;50.232;20.364;2023-12-29T02:25:16;10.60;;;5.70;;
76117;SDS011;64851;50.232;20.364;2023-12-29T02:28:06;11.00;;;5.90;;
76117;SDS011;64851;50.232;20.364;2023-12-29T02:31:00;11.20;;;6.10;;
76117;SDS011;64851;50.232;20.364;2023-12-29T02:36:25;10.40;;;5.40;;
76117;SDS011;64851;50.232;20.364;2023-12-29T02:39:13;11.10;;;4.80;;
76117;SDS011;64851;50.232;20.364;2023-12-29T02:42:08;10.60;;;5.20;;
76117;SDS011;64851;50.232;20.364;2023-12-29T02:44:43;11.10;;;5.80;;
76117;SDS011;64851;50.232;20.364;2023-12-29T02:47:31;11.80;;;6.00;;
76117;SDS011;64851;50.232;20.364;2023-12-29T02:50:08;13.80;;;6.80;;
76117;SDS011;64851;50.232;20.364;2023-12-29T02:52:56;11.80;;;6.30;;
76117;SDS011;64851;50.232;20.364;2023-12-29T02:55:31;12.60;;;6.30;;
76117;SDS011;64851;50.232;20.364;2023-12-29T02:58:19;11.80;;;6.50;;
76117;SDS011;64851;50.232;20.364;2023-12-29T03:00:56;13.00;;;6.50;;
76117;SDS011;64851;50.232;20.364;2023-12-29T03:03:44;15.60;;;6.70;;
76117;SDS011;64851;50.232;20.364;2023-12-29T03:06:19;11.90;;;6.50;;
76117;SDS011;64851;50.232;20.364;2023-12-29T03:09:07;13.50;;;6.40;;
76117;SDS011;64851;50.232;20.364;2023-12-29T03:11:42;14.00;;;7.40;;
76117;SDS011;64851;50.232;20.364;2023-12-29T03:14:30;12.70;;;6.50;;
76117;SDS011;64851;50.232;20.364;2023-12-29T03:17:05;11.30;;;6.80;;
76117;SDS011;64851;50.232;20.364;2023-12-29T03:19:54;12.60;;;6.20;;
76117;SDS011;64851;50.232;20.364;2023-12-29T03:22:30;16.20;;;7.60;;
76117;SDS011;64851;50.232;20.364;2023-12-29T03:25:20;12.10;;;6.60;;
76117;SDS011;64851;50.232;20.364;2023-12-29T03:27:56;14.30;;;6.30;;
76117;SDS011;64851;50.232;20.364;2023-12-29T03:30:51;11.50;;;6.50;;
76117;SDS011;64851;50.232;20.364;2023-12-29T03:33:46;12.30;;;6.30;;
76117;SDS011;64851;50.232;20.364;2023-12-29T03:36:21;12.80;;;6.60;;
76117;SDS011;64851;50.232;20.364;2023-12-29T03:39:09;13.90;;;6.80;;
76117;SDS011;64851;50.232;20.364;2023-12-29T03:42:04;13.00;;;6.80;;
76117;SDS011;64851;50.232;20.364;2023-12-29T03:44:38;12.40;;;6.70;;
76117;SDS011;64851;50.232;20.364;2023-12-29T03:47:27;12.60;;;6.80;;
76117;SDS011;64851;50.232;20.364;2023-12-29T03:50:02;13.60;;;6.40;;
76117;SDS011;64851;50.232;20.364;2023-12-29T03:52:50;12.60;;;6.50;;
76117;SDS011;64851;50.232;20.364;2023-12-29T03:55:25;15.60;;;6.60;;
76117;SDS011;64851;50.232;20.364;2023-12-29T03:58:14;15.80;;;7.30;;
76117;SDS011;64851;50.232;20.364;2023-12-29T04:00:50;13.20;;;6.90;;
76117;SDS011;64851;50.232;20.364;2023-12-29T04:03:38;13.20;;;6.80;;
76117;SDS011;64851;50.232;20.364;2023-12-29T04:06:14;13.90;;;7.30;;
76117;SDS011;64851;50.232;20.364;2023-12-29T04:09:02;15.00;;;7.80;;
76117;SDS011;64851;50.232;20.364;2023-12-29T04:11:45;13.90;;;7.90;;
76117;SDS011;64851;50.232;20.364;2023-12-29T04:14:34;11.20;;;6.80;;
76117;SDS011;64851;50.232;20.364;2023-12-29T04:17:10;12.90;;;6.90;;
76117;SDS011;64851;50.232;20.364;2023-12-29T04:20:00;12.80;;;7.40;;
76117;SDS011;64851;50.232;20.364;2023-12-29T04:22:43;13.00;;;6.40;;
76117;SDS011;64851;50.232;20.364;2023-12-29T04:25:24;14.00;;;7.70;;
76117;SDS011;64851;50.232;20.364;2023-12-29T04:28:06;12.70;;;6.70;;
76117;SDS011;64851;50.232;20.364;2023-12-29T04:30:48;11.60;;;6.40;;
76117;SDS011;64851;50.232;20.364;2023-12-29T04:33:29;10.70;;;5.90;;
76117;SDS011;64851;50.232;20.364;2023-12-29T04:36:17;12.20;;;6.20;;
76117;SDS011;64851;50.232;20.364;2023-12-29T04:38:52;11.20;;;6.40;;
76117;SDS011;64851;50.232;20.364;2023-12-29T04:41:40;14.30;;;6.80;;
76117;SDS011;64851;50.232;20.364;2023-12-29T04:44:15;16.10;;;7.90;;
76117;SDS011;64851;50.232;20.364;2023-12-29T04:47:05;12.10;;;5.50;;
76117;SDS011;64851;50.232;20.364;2023-12-29T04:49:40;14.90;;;7.30;;
76117;SDS011;64851;50.232;20.364;2023-12-29T04:52:29;13.10;;;7.10;;
76117;SDS011;64851;50.232;20.364;2023-12-29T04:55:04;14.30;;;7.20;;
76117;SDS011;64851;50.232;20.364;2023-12-29T04:57:53;15.80;;;7.70;;
76117;SDS011;64851;50.232;20.364;2023-12-29T05:00:27;13.60;;;7.80;;
76117;SDS011;64851;50.232;20.364;2023-12-29T05:03:15;13.70;;;7.00;;
76117;SDS011;64851;50.232;20.364;2023-12-29T05:05:49;15.20;;;7.20;;
76117;SDS011;64851;50.232;20.364;2023-12-29T05:08:37;13.50;;;7.10;;
76117;SDS011;64851;50.232;20.364;2023-12-29T05:11:18;17.70;;;9.30;;
76117;SDS011;64851;50.232;20.364;2023-12-29T05:14:01;18.30;;;9.60;;
76117;SDS011;64851;50.232;20.364;2023-12-29T05:16:42;18.30;;;9.60;;
76117;SDS011;64851;50.232;20.364;2023-12-29T05:19:24;19.10;;;10.20;;
76117;SDS011;64851;50.232;20.364;2023-12-29T05:22:07;19.40;;;9.80;;
76117;SDS011;64851;50.232;20.364;2023-12-29T05:24:53;19.20;;;9.60;;
76117;SDS011;64851;50.232;20.364;2023-12-29T05:27:39;21.60;;;11.20;;
76117;SDS011;64851;50.232;20.364;2023-12-29T05:30:29;21.90;;;11.30;;
76117;SDS011;64851;50.232;20.364;2023-12-29T05:33:06;22.40;;;11.60;;
76117;SDS011;64851;50.232;20.364;2023-12-29T05:35:54;23.40;;;12.50;;
76117;SDS011;64851;50.232;20.364;2023-12-29T05:38:44;23.10;;;12.20;;
76117;SDS011;64851;50.232;20.364;2023-12-29T05:41:40;22.50;;;11.70;;
76117;SDS011;64851;50.232;20.364;2023-12-29T05:44:16;24.10;;;11.20;;
76117;SDS011;64851;50.232;20.364;2023-12-29T05:47:06;22.20;;;12.40;;
76117;SDS011;64851;50.232;20.364;2023-12-29T05:49:42;20.00;;;10.40;;
76117;SDS011;64851;50.232;20.364;2023-12-29T05:52:31;23.10;;;10.60;;
76117;SDS011;64851;50.232;20.364;2023-12-29T05:55:08;21.30;;;10.90;;
76117;SDS011;64851;50.232;20.364;2023-12-29T05:57:58;22.30;;;11.30;;
76117;SDS011;64851;50.232;20.364;2023-12-29T06:00:33;21.40;;;11.80;;
76117;SDS011;64851;50.232;20.364;2023-12-29T06:03:28;20.80;;;10.80;;
76117;SDS011;64851;50.232;20.364;2023-12-29T06:06:23;17.00;;;8.20;;
76117;SDS011;64851;50.232;20.364;2023-12-29T06:08:59;15.30;;;7.50;;
76117;SDS011;64851;50.232;20.364;2023-12-29T06:11:48;16.20;;;9.40;;
76117;SDS011;64851;50.232;20.364;2023-12-29T06:14:30;15.90;;;8.00;;
76117;SDS011;64851;50.232;20.364;2023-12-29T06:17:11;15.80;;;8.20;;
76117;SDS011;64851;50.232;20.364;2023-12-29T06:19:52;13.80;;;7.00;;
76117;SDS011;64851;50.232;20.364;2023-12-29T06:22:33;17.40;;;8.30;;
76117;SDS011;64851;50.232;20.364;2023-12-29T06:25:16;11.50;;;6.90;;
76117;SDS011;64851;50.232;20.364;2023-12-29T06:28:06;13.00;;;6.90;;
76117;SDS011;64851;50.232;20.364;2023-12-29T06:30:41;11.90;;;6.50;;
76117;SDS011;64851;50.232;20.364;2023-12-29T06:33:31;11.70;;;6.70;;
76117;SDS011;64851;50.232;20.364;2023-12-29T06:36:05;14.30;;;5.90;;
76117;SDS011;64851;50.232;20.364;2023-12-29T06:38:54;18.40;;;9.10;;
76117;SDS011;64851;50.232;20.364;2023-12-29T06:41:35;17.90;;;8.70;;
76117;SDS011;64851;50.232;20.364;2023-12-29T06:44:23;11.90;;;6.40;;
76117;SDS011;64851;50.232;20.364;2023-12-29T06:47:04;9.20;;;4.70;;
76117;SDS011;64851;50.232;20.364;2023-12-29T06:49:54;8.70;;;4.80;;
76117;SDS011;64851;50.232;20.364;2023-12-29T06:52:35;9.80;;;4.70;;
76117;SDS011;64851;50.232;20.364;2023-12-29T06:55:24;8.70;;;4.40;;
76117;SDS011;64851;50.232;20.364;2023-12-29T06:57:59;10.60;;;5.40;;
76117;SDS011;64851;50.232;20.364;2023-12-29T07:00:55;9.00;;;5.10;;
76117;SDS011;64851;50.232;20.364;2023-12-29T07:03:50;9.80;;;4.60;;
76117;SDS011;64851;50.232;20.364;2023-12-29T07:06:24;7.90;;;4.60;;
76117;SDS011;64851;50.232;20.364;2023-12-29T07:09:13;9.40;;;5.20;;
76117;SDS011;64851;50.232;20.364;2023-12-29T07:11:48;9.30;;;4.40;;
76117;SDS011;64851;50.232;20.364;2023-12-29T07:14:44;9.50;;;4.90;;
76117;SDS011;64851;50.232;20.364;2023-12-29T07:17:42;9.30;;;4.50;;
76117;SDS011;64851;50.232;20.364;2023-12-29T07:20:17;6.90;;;3.60;;
76117;SDS011;64851;50.232;20.364;2023-12-29T07:23:05;8.80;;;4.50;;
76117;SDS011;64851;50.232;20.364;2023-12-29T07:25:47;13.50;;;6.70;;
76117;SDS011;64851;50.232;20.364;2023-12-29T07:28:28;11.50;;;6.10;;
76117;SDS011;64851;50.232;20.364;2023-12-29T07:31:10;11.80;;;7.00;;
76117;SDS011;64851;50.232;20.364;2023-12-29T07:33:59;13.40;;;6.90;;
76117;SDS011;64851;50.232;20.364;2023-12-29T07:36:40;14.50;;;6.90;;
76117;SDS011;64851;50.232;20.364;2023-12-29T07:39:21;14.80;;;8.30;;
76117;SDS011;64851;50.232;20.364;2023-12-29T07:42:02;18.40;;;10.00;;
76117;SDS011;64851;50.232;20.364;2023-12-29T07:44:43;17.20;;;9.60;;
76117;SDS011;64851;50.232;20.364;2023-12-29T07:50:06;19.00;;;9.90;;
76117;SDS011;64851;50.232;20.364;2023-12-29T07:52:47;24.40;;;12.20;;
76117;SDS011;64851;50.232;20.364;2023-12-29T07:55:30;23.60;;;13.00;;
76117;SDS011;64851;50.232;20.364;2023-12-29T07:58:11;23.90;;;13.50;;
76117;SDS011;64851;50.232;20.364;2023-12-29T08:00:53;25.10;;;13.20;;
76117;SDS011;64851;50.232;20.364;2023-12-29T08:03:34;19.80;;;11.70;;
76117;SDS011;64851;50.232;20.364;2023-12-29T08:06:16;17.10;;;9.60;;
76117;SDS011;64851;50.232;20.364;2023-12-29T08:08:57;9.30;;;4.70;;
76117;SDS011;64851;50.232;20.364;2023-12-29T08:11:45;8.40;;;3.60;;
76117;SDS011;64851;50.232;20.364;2023-12-29T08:14:19;7.10;;;3.60;;
76117;SDS011;64851;50.232;20.364;2023-12-29T08:17:09;8.60;;;3.80;;
76117;SDS011;64851;50.232;20.364;2023-12-29T08:19:50;8.60;;;4.00;;
76117;SDS011;64851;50.232;20.364;2023-12-29T08:22:33;10.00;;;4.40;;
76117;SDS011;64851;50.232;20.364;2023-12-29T08:28:28;8.10;;;4.70;;
76117;SDS011;64851;50.232;20.364;2023-12-29T08:31:15;8.50;;;5.10;;
76117;SDS011;64851;50.232;20.364;2023-12-29T08:34:15;9.50;;;3.90;;
76117;SDS011;64851;50.232;20.364;2023-12-29T08:37:14;8.20;;;3.40;;
76117;SDS011;64851;50.232;20.364;2023-12-29T08:40:02;7.20;;;3.60;;
76117;SDS011;64851;50.232;20.364;2023-12-29T08:42:57;5.70;;;2.60;;
76117;SDS011;64851;50.232;20.364;2023-12-29T08:45:32;5.30;;;3.00;;
76117;SDS011;64851;50.232;20.364;2023-12-29T08:48:20;7.20;;;3.90;;
76117;SDS011;64851;50.232;20.364;2023-12-29T08:50:55;5.50;;;3.30;;
76117;SDS011;64851;50.232;20.364;2023-12-29T08:53:50;6.90;;;3.10;;
76117;SDS011;64851;50.232;20.364;2023-12-29T08:56:27;4.80;;;2.50;;
76117;SDS011;64851;50.232;20.364;2023-12-29T08:59:22;5.40;;;3.10;;
76117;SDS011;64851;50.232;20.364;2023-12-29T09:02:17;6.30;;;3.20;;
76117;SDS011;64851;50.232;20.364;2023-12-29T09:04:58;7.10;;;3.40;;
76117;SDS011;64851;50.232;20.364;2023-12-29T09:07:41;6.70;;;3.20;;
76117;SDS011;64851;50.232;20.364;2023-12-29T09:10:22;6.30;;;2.80;;
76117;SDS011;64851;50.232;20.364;2023-12-29T09:13:04;6.50;;;3.10;;
76117;SDS011;64851;50.232;20.364;2023-12-29T09:15:47;5.10;;;2.70;;
76117;SDS011;64851;50.232;20.364;2023-12-29T09:18:30;7.30;;;3.60;;
76117;SDS011;64851;50.232;20.364;2023-12-29T09:21:11;5.60;;;2.70;;
76117;SDS011;64851;50.232;20.364;2023-12-29T09:23:53;6.00;;;3.50;;
76117;SDS011;64851;50.232;20.364;2023-12-29T09:26:35;5.30;;;2.30;;
76117;SDS011;64851;50.232;20.364;2023-12-29T09:29:17;6.00;;;2.60;;
76117;SDS011;64851;50.232;20.364;2023-12-29T09:31:59;6.80;;;2.90;;
76117;SDS011;64851;50.232;20.364;2023-12-29T09:34:40;5.40;;;2.50;;
76117;SDS011;64851;50.232;20.364;2023-12-29T09:37:22;4.40;;;2.30;;
76117;SDS011;64851;50.232;20.364;2023-12-29T09:40:10;4.10;;;2.20;;
76117;SDS011;64851;50.232;20.364;2023-12-29T09:42:51;5.30;;;2.50;;
76117;SDS011;64851;50.232;20.364;2023-12-29T09:45:33;4.00;;;2.20;;
76117;SDS011;64851;50.232;20.364;2023-12-29T09:48:16;5.10;;;2.00;;
76117;SDS011;64851;50.232;20.364;2023-12-29T09:51:01;5.10;;;2.40;;
76117;SDS011;64851;50.232;20.364;2023-12-29T09:53:42;3.50;;;1.70;;
76117;SDS011;64851;50.232;20.364;2023-12-29T09:56:24;4.10;;;1.50;;
76117;SDS011;64851;50.232;20.364;2023-12-29T09:59:06;4.40;;;2.10;;
76117;SDS011;64851;50.232;20.364;2023-12-29T10:01:48;4.40;;;2.00;;
76117;SDS011;64851;50.232;20.364;2023-12-29T10:04:29;3.00;;;1.50;;
76117;SDS011;64851;50.232;20.364;2023-12-29T10:07:13;4.90;;;1.40;;
76117;SDS011;64851;50.232;20.364;2023-12-29T10:10:00;5.90;;;1.40;;
76117;SDS011;64851;50.232;20.364;2023-12-29T10:12:43;3.70;;;1.20;;
76117;SDS011;64851;50.232;20.364;2023-12-29T10:15:37;3.50;;;0.90;;
76117;SDS011;64851;50.232;20.364;2023-12-29T10:18:22;3.00;;;0.80;;
76117;SDS011;64851;50.232;20.364;2023-12-29T10:24:16;3.00;;;0.90;;
76117;SDS011;64851;50.232;20.364;2023-12-29T10:26:53;2.10;;;0.70;;
76117;SDS011;64851;50.232;20.364;2023-12-29T10:29:48;2.60;;;0.70;;
76117;SDS011;64851;50.232;20.364;2023-12-29T10:32:43;2.10;;;0.70;;
76117;SDS011;64851;50.232;20.364;2023-12-29T10:35:24;3.30;;;1.10;;
76117;SDS011;64851;50.232;20.364;2023-12-29T10:38:10;3.10;;;1.10;;
76117;SDS011;64851;50.232;20.364;2023-12-29T10:41:15;3.50;;;1.60;;
76117;SDS011;64851;50.232;20.364;2023-12-29T10:44:10;3.80;;;1.30;;
76117;SDS011;64851;50.232;20.364;2023-12-29T10:46:44;3.30;;;1.30;;
76117;SDS011;64851;50.232;20.364;2023-12-29T10:49:33;2.80;;;1.20;;
76117;SDS011;64851;50.232;20.364;2023-12-29T10:52:12;4.50;;;1.70;;
76117;SDS011;64851;50.232;20.364;2023-12-29T10:55:06;4.30;;;1.50;;
76117;SDS011;64851;50.232;20.364;2023-12-29T10:57:59;3.40;;;1.20;;
76117;SDS011;64851;50.232;20.364;2023-12-29T11:00:48;4.30;;;1.60;;
76117;SDS011;64851;50.232;20.364;2023-12-29T11:03:23;4.80;;;1.70;;
76117;SDS011;64851;50.232;20.364;2023-12-29T11:06:13;4.10;;;1.10;;
76117;SDS011;64851;50.232;20.364;2023-12-29T11:08:47;5.50;;;1.40;;
76117;SDS011;64851;50.232;20.364;2023-12-29T11:11:44;3.10;;;1.10;;
76117;SDS011;64851;50.232;20.364;2023-12-29T11:14:39;2.40;;;1.10;;
76117;SDS011;64851;50.232;20.364;2023-12-29T11:17:16;3.30;;;1.50;;
76117;SDS011;64851;50.232;20.364;2023-12-29T11:20:12;2.50;;;1.00;;
76117;SDS011;64851;50.232;20.364;2023-12-29T11:23:07;3.30;;;1.10;;
76117;SDS011;64851;50.232;20.364;2023-12-29T11:25:50;3.00;;;0.90;;
76117;SDS011;64851;50.232;20.364;2023-12-29T11:28:48;2.40;;;0.70;;
76117;SDS011;64851;50.232;20.364;2023-12-29T11:31:26;2.70;;;0.90;;
76117;SDS011;64851;50.232;20.364;2023-12-29T11:34:25;2.40;;;0.70;;
76117;SDS011;64851;50.232;20.364;2023-12-29T11:37:10;2.10;;;0.70;;
76117;SDS011;64851;50.232;20.364;2023-12-29T11:40:30;2.60;;;1.10;;
76117;SDS011;64851;50.232;20.364;2023-12-29T11:43:16;2.40;;;0.70;;
76117;SDS011;64851;50.232;20.364;2023-12-29T11:46:05;2.10;;;0.70;;
76117;SDS011;64851;50.232;20.364;2023-12-29T11:48:55;2.30;;;1.10;;
76117;SDS011;64851;50.232;20.364;2023-12-29T11:51:52;3.00;;;1.30;;
76117;SDS011;64851;50.232;20.364;2023-12-29T11:54:27;1.80;;;0.70;;
76117;SDS011;64851;50.232;20.364;2023-12-29T11:57:17;2.30;;;0.90;;
76117;SDS011;64851;50.232;20.364;2023-12-29T12:00:06;2.80;;;1.00;;
76117;SDS011;64851;50.232;20.364;2023-12-29T12:02:55;2.60;;;0.90;;
76117;SDS011;64851;50.232;20.364;2023-12-29T12:05:49;2.90;;;1.00;;
76117;SDS011;64851;50.232;20.364;2023-12-29T12:08:47;2.90;;;0.90;;
76117;SDS011;64851;50.232;20.364;2023-12-29T12:11:42;3.10;;;0.90;;
76117;SDS011;64851;50.232;20.364;2023-12-29T12:17:42;2.30;;;0.80;;
76117;SDS011;64851;50.232;20.364;2023-12-29T12:20:17;3.30;;;1.10;;
76117;SDS011;64851;50.232;20.364;2023-12-29T12:23:16;4.00;;;1.20;;
76117;SDS011;64851;50.232;20.364;2023-12-29T12:25:58;3.70;;;0.90;;
76117;SDS011;64851;50.232;20.364;2023-12-29T12:28:41;3.30;;;0.70;;
76117;SDS011;64851;50.232;20.364;2023-12-29T12:31:24;3.20;;;0.70;;
76117;SDS011;64851;50.232;20.364;2023-12-29T12:34:06;2.90;;;0.80;;
76117;SDS011;64851;50.232;20.364;2023-12-29T12:36:48;2.60;;;1.00;;
76117;SDS011;64851;50.232;20.364;2023-12-29T12:39:40;6.60;;;3.70;;
76117;SDS011;64851;50.232;20.364;2023-12-29T12:42:32;3.50;;;1.00;;
76117;SDS011;64851;50.232;20.364;2023-12-29T12:45:26;4.10;;;1.70;;
76117;SDS011;64851;50.232;20.364;2023-12-29T12:48:05;4.50;;;1.60;;
76117;SDS011;64851;50.232;20.364;2023-12-29T12:51:00;5.70;;;2.30;;
76117;SDS011;64851;50.232;20.364;2023-12-29T12:53:41;2.60;;;1.00;;
76117;SDS011;64851;50.232;20.364;2023-12-29T12:56:24;2.40;;;0.60;;
76117;SDS011;64851;50.232;20.364;2023-12-29T12:59:08;4.20;;;2.00;;
76117;SDS011;64851;50.232;20.364;2023-12-29T13:01:51;4.70;;;1.20;;
76117;SDS011;64851;50.232;20.364;2023-12-29T13:04:32;3.40;;;1.10;;
76117;SDS011;64851;50.232;20.364;2023-12-29T13:07:20;2.40;;;0.90;;
76117;SDS011;64851;50.232;20.364;2023-12-29T13:09:56;2.70;;;0.90;;
76117;SDS011;64851;50.232;20.364;2023-12-29T13:12:52;2.60;;;1.10;;
76117;SDS011;64851;50.232;20.364;2023-12-29T13:15:34;2.60;;;0.80;;
76117;SDS011;64851;50.232;20.364;2023-12-29T13:18:28;2.40;;;0.90;;
76117;SDS011;64851;50.232;20.364;2023-12-29T13:21:11;3.10;;;0.90;;
76117;SDS011;64851;50.232;20.364;2023-12-29T13:23:53;2.80;;;0.90;;
76117;SDS011;64851;50.232;20.364;2023-12-29T13:26:36;2.50;;;1.00;;
76117;SDS011;64851;50.232;20.364;2023-12-29T13:29:22;5.80;;;1.80;;
76117;SDS011;64851;50.232;20.364;2023-12-29T13:38:41;2.80;;;1.00;;
76117;SDS011;64851;50.232;20.364;2023-12-29T13:41:27;2.20;;;1.00;;
76117;SDS011;64851;50.232;20.364;2023-12-29T13:44:11;3.00;;;1.20;;
76117;SDS011;64851;50.232;20.364;2023-12-29T13:46:53;3.20;;;1.00;;
76117;SDS011;64851;50.232;20.364;2023-12-29T13:49:34;2.60;;;1.10;;
76117;SDS011;64851;50.232;20.364;2023-12-29T13:52:18;3.00;;;1.40;;
76117;SDS011;64851;50.232;20.364;2023-12-29T13:55:13;3.20;;;1.10;;
76117;SDS011;64851;50.232;20.364;2023-12-29T13:58:15;3.60;;;1.40;;
76117;SDS011;64851;50.232;20.364;2023-12-29T14:01:17;3.40;;;1.30;;
76117;SDS011;64851;50.232;20.364;2023-12-29T14:04:03;3.40;;;1.20;;
76117;SDS011;64851;50.232;20.364;2023-12-29T14:07:01;3.50;;;1.50;;
76117;SDS011;64851;50.232;20.364;2023-12-29T14:09:37;3.70;;;1.50;;
76117;SDS011;64851;50.232;20.364;2023-12-29T14:12:25;4.60;;;1.60;;
76117;SDS011;64851;50.232;20.364;2023-12-29T14:15:04;3.20;;;1.00;;
76117;SDS011;64851;50.232;20.364;2023-12-29T14:17:55;3.60;;;1.40;;
76117;SDS011;64851;50.232;20.364;2023-12-29T14:20:41;2.10;;;0.90;;
76117;SDS011;64851;50.232;20.364;2023-12-29T14:23:36;3.10;;;1.30;;
76117;SDS011;64851;50.232;20.364;2023-12-29T14:26:11;4.30;;;1.60;;
76117;SDS011;64851;50.232;20.364;2023-12-29T14:29:06;4.60;;;1.70;;
76117;SDS011;64851;50.232;20.364;2023-12-29T14:32:05;3.00;;;1.10;;
76117;SDS011;64851;50.232;20.364;2023-12-29T14:34:39;2.90;;;1.30;;
76117;SDS011;64851;50.232;20.364;2023-12-29T14:37:32;3.60;;;1.40;;
76117;SDS011;64851;50.232;20.364;2023-12-29T14:40:18;4.70;;;1.50;;
76117;SDS011;64851;50.232;20.364;2023-12-29T14:43:19;3.00;;;1.30;;
76117;SDS011;64851;50.232;20.364;2023-12-29T14:45:54;4.00;;;1.70;;
76117;SDS011;64851;50.232;20.364;2023-12-29T14:48:43;4.30;;;2.20;;
76117;SDS011;64851;50.232;20.364;2023-12-29T14:51:18;5.10;;;1.80;;
76117;SDS011;64851;50.232;20.364;2023-12-29T14:54:06;3.40;;;1.80;;
76117;SDS011;64851;50.232;20.364;2023-12-29T14:56:46;6.10;;;2.00;;
76117;SDS011;64851;50.232;20.364;2023-12-29T15:02:47;4.20;;;1.60;;
76117;SDS011;64851;50.232;20.364;2023-12-29T15:05:25;4.20;;;1.80;;
76117;SDS011;64851;50.232;20.364;2023-12-29T15:08:14;4.80;;;1.70;;
76117;SDS011;64851;50.232;20.364;2023-12-29T15:10:49;4.60;;;2.30;;
76117;SDS011;64851;50.232;20.364;2023-12-29T15:13:38;4.80;;;2.10;;
76117;SDS011;64851;50.232;20.364;2023-12-29T15:16:12;4.00;;;1.90;;
76117;SDS011;64851;50.232;20.364;2023-12-29T15:19:08;5.30;;;2.40;;
76117;SDS011;64851;50.232;20.364;2023-12-29T15:22:10;6.60;;;2.30;;
76117;SDS011;64851;50.232;20.364;2023-12-29T15:25:05;5.30;;;2.70;;
76117;SDS011;64851;50.232;20.364;2023-12-29T15:27:41;7.40;;;2.50;;
76117;SDS011;64851;50.232;20.364;2023-12-29T15:30:36;5.90;;;2.50;;
76117;SDS011;64851;50.232;20.364;2023-12-29T15:33:32;5.60;;;2.70;;
76117;SDS011;64851;50.232;20.364;2023-12-29T15:36:11;6.60;;;2.70;;
76117;SDS011;64851;50.232;20.364;2023-12-29T15:39:04;7.80;;;2.60;;
76117;SDS011;64851;50.232;20.364;2023-12-29T15:41:53;7.20;;;3.20;;
76117;SDS011;64851;50.232;20.364;2023-12-29T15:44:48;6.00;;;2.80;;
76117;SDS011;64851;50.232;20.364;2023-12-29T15:47:43;6.10;;;3.10;;
76117;SDS011;64851;50.232;20.364;2023-12-29T15:50:18;6.40;;;3.10;;
76117;SDS011;64851;50.232;20.364;2023-12-29T15:53:06;7.90;;;3.20;;
76117;SDS011;64851;50.232;20.364;2023-12-29T15:55:41;7.50;;;2.60;;
76117;SDS011;64851;50.232;20.364;2023-12-29T15:58:29;8.30;;;3.10;;
76117;SDS011;64851;50.232;20.364;2023-12-29T16:01:03;8.10;;;3.60;;
76117;SDS011;64851;50.232;20.364;2023-12-29T16:03:52;8.10;;;3.70;;
76117;SDS011;64851;50.232;20.364;2023-12-29T16:06:28;10.30;;;4.40;;
76117;SDS011;64851;50.232;20.364;2023-12-29T16:09:18;7.70;;;3.40;;
76117;SDS011;64851;50.232;20.364;2023-12-29T16:11:53;9.10;;;3.60;;
76117;SDS011;64851;50.232;20.364;2023-12-29T16:14:45;6.30;;;3.00;;
76117;SDS011;64851;50.232;20.364;2023-12-29T16:17:21;7.90;;;3.30;;
76117;SDS011;64851;50.232;20.364;2023-12-29T16:20:11;6.20;;;2.80;;
76117;SDS011;64851;50.232;20.364;2023-12-29T16:22:47;5.60;;;2.50;;
76117;SDS011;64851;50.232;20.364;2023-12-29T16:25:35;7.50;;;2.90;;
76117;SDS011;64851;50.232;20.364;2023-12-29T16:28:11;6.70;;;2.50;;
76117;SDS011;64851;50.232;20.364;2023-12-29T16:31:02;3.90;;;2.40;;
76117;SDS011;64851;50.232;20.364;2023-12-29T16:33:42;6.90;;;2.60;;
76117;SDS011;64851;50.232;20.364;2023-12-29T16:36:37;6.50;;;2.70;;